Terminal Aerodrome Forecast
Issued by NWS

Home | Current Version | Previous Version | Text Only | Print | Product List | Glossary On
Versions: 1 2 3 4 5 6 7 8 9 10 11 12 13 14 15 16 17
000
FTUS42 KJAX 220300 AAA
TAFVQQ
TAF AMD
KVQQ 220317Z 2203/2224 04004KT 2SM BR VCSH OVC003
     FM220400 VRB02KT 1SM SHRA BR OVC002
      TEMPO 2206/2210 1/4SM RA FG OVC001
     FM221400 10005KT 2SM -RA BR OVC004
     FM221800 08006KT P6SM VCSH OVC008=

USA.gov is the U.S. government's official web portal to all federal, state and local government web resources and services.